sensor_id;sensor_type;location;lat;lon;timestamp;P1;durP1;ratioP1;P2;durP2;ratioP2
20669;SDS011;10494;50.868;4.180;2022-12-29T00:01:33;3.45;;;2.25;;
20669;SDS011;10494;50.868;4.180;2022-12-29T00:03:59;1.98;;;1.73;;
20669;SDS011;10494;50.868;4.180;2022-12-29T00:06:25;4.78;;;2.13;;
20669;SDS011;10494;50.868;4.180;2022-12-29T00:08:51;3.45;;;1.67;;
20669;SDS011;10494;50.868;4.180;2022-12-29T00:11:21;3.90;;;2.15;;
20669;SDS011;10494;50.868;4.180;2022-12-29T00:13:50;3.47;;;2.00;;
20669;SDS011;10494;50.868;4.180;2022-12-29T00:16:35;5.93;;;2.05;;
20669;SDS011;10494;50.868;4.180;2022-12-29T00:19:02;4.43;;;1.73;;
20669;SDS011;10494;50.868;4.180;2022-12-29T00:21:30;2.50;;;1.45;;
20669;SDS011;10494;50.868;4.180;2022-12-29T00:24:16;6.03;;;1.65;;
20669;SDS011;10494;50.868;4.180;2022-12-29T00:29:42;2.97;;;1.40;;
20669;SDS011;10494;50.868;4.180;2022-12-29T00:32:26;4.65;;;1.05;;
20669;SDS011;10494;50.868;4.180;2022-12-29T00:35:11;4.53;;;1.33;;
20669;SDS011;10494;50.868;4.180;2022-12-29T00:37:43;7.15;;;1.70;;
20669;SDS011;10494;50.868;4.180;2022-12-29T00:40:31;4.43;;;1.38;;
20669;SDS011;10494;50.868;4.180;2022-12-29T00:43:15;3.80;;;1.48;;
20669;SDS011;10494;50.868;4.180;2022-12-29T00:45:58;7.68;;;1.90;;
20669;SDS011;10494;50.868;4.180;2022-12-29T00:48:24;3.25;;;1.17;;
20669;SDS011;10494;50.868;4.180;2022-12-29T00:51:08;3.35;;;1.08;;
20669;SDS011;10494;50.868;4.180;2022-12-29T00:53:34;6.88;;;2.13;;
20669;SDS011;10494;50.868;4.180;2022-12-29T00:55:59;7.20;;;1.35;;
20669;SDS011;10494;50.868;4.180;2022-12-29T00:58:29;3.67;;;1.20;;
20669;SDS011;10494;50.868;4.180;2022-12-29T01:01:05;6.07;;;1.33;;
20669;SDS011;10494;50.868;4.180;2022-12-29T01:03:32;4.50;;;1.42;;
20669;SDS011;10494;50.868;4.180;2022-12-29T01:06:02;5.00;;;1.70;;
20669;SDS011;10494;50.868;4.180;2022-12-29T01:08:29;2.30;;;0.85;;
20669;SDS011;10494;50.868;4.180;2022-12-29T01:11:02;4.50;;;1.38;;
20669;SDS011;10494;50.868;4.180;2022-12-29T01:13:30;6.80;;;1.00;;
20669;SDS011;10494;50.868;4.180;2022-12-29T01:15:56;2.28;;;1.10;;
20669;SDS011;10494;50.868;4.180;2022-12-29T01:18:22;3.70;;;1.10;;
20669;SDS011;10494;50.868;4.180;2022-12-29T01:20:49;1.80;;;1.13;;
20669;SDS011;10494;50.868;4.180;2022-12-29T01:23:15;5.03;;;1.33;;
20669;SDS011;10494;50.868;4.180;2022-12-29T01:25:41;5.18;;;1.73;;
20669;SDS011;10494;50.868;4.180;2022-12-29T01:28:06;1.90;;;1.20;;
20669;SDS011;10494;50.868;4.180;2022-12-29T01:30:35;4.40;;;1.23;;
20669;SDS011;10494;50.868;4.180;2022-12-29T01:33:02;3.53;;;1.20;;
20669;SDS011;10494;50.868;4.180;2022-12-29T01:35:28;4.15;;;1.35;;
20669;SDS011;10494;50.868;4.180;2022-12-29T01:37:53;5.22;;;1.52;;
20669;SDS011;10494;50.868;4.180;2022-12-29T01:40:19;5.32;;;1.42;;
20669;SDS011;10494;50.868;4.180;2022-12-29T01:42:45;4.45;;;1.10;;
20669;SDS011;10494;50.868;4.180;2022-12-29T01:45:14;3.28;;;1.35;;
20669;SDS011;10494;50.868;4.180;2022-12-29T01:47:43;3.63;;;1.33;;
20669;SDS011;10494;50.868;4.180;2022-12-29T01:52:50;2.75;;;1.08;;
20669;SDS011;10494;50.868;4.180;2022-12-29T01:55:20;4.55;;;1.10;;
20669;SDS011;10494;50.868;4.180;2022-12-29T01:57:48;5.47;;;1.30;;
20669;SDS011;10494;50.868;4.180;2022-12-29T02:00:16;3.47;;;1.10;;
20669;SDS011;10494;50.868;4.180;2022-12-29T02:02:42;3.25;;;1.25;;
20669;SDS011;10494;50.868;4.180;2022-12-29T02:05:33;3.47;;;1.00;;
20669;SDS011;10494;50.868;4.180;2022-12-29T02:08:03;3.28;;;0.90;;
20669;SDS011;10494;50.868;4.180;2022-12-29T02:10:30;3.00;;;0.70;;
20669;SDS011;10494;50.868;4.180;2022-12-29T02:12:57;1.52;;;0.80;;
20669;SDS011;10494;50.868;4.180;2022-12-29T02:23:42;4.18;;;1.05;;
20669;SDS011;10494;50.868;4.180;2022-12-29T02:37:30;5.45;;;1.00;;
20669;SDS011;10494;50.868;4.180;2022-12-29T02:51:04;3.33;;;1.00;;
20669;SDS011;10494;50.868;4.180;2022-12-29T02:53:34;2.03;;;1.00;;
20669;SDS011;10494;50.868;4.180;2022-12-29T02:56:20;0.90;;;0.63;;
20669;SDS011;10494;50.868;4.180;2022-12-29T02:58:46;6.60;;;1.45;;
20669;SDS011;10494;50.868;4.180;2022-12-29T03:01:23;3.28;;;0.82;;
20669;SDS011;10494;50.868;4.180;2022-12-29T03:06:51;7.68;;;1.40;;
20669;SDS011;10494;50.868;4.180;2022-12-29T03:09:29;7.03;;;1.10;;
20669;SDS011;10494;50.868;4.180;2022-12-29T03:17:35;9.98;;;1.70;;
20669;SDS011;10494;50.868;4.180;2022-12-29T03:20:12;5.90;;;1.10;;
20669;SDS011;10494;50.868;4.180;2022-12-29T03:22:45;10.48;;;1.50;;
20669;SDS011;10494;50.868;4.180;2022-12-29T03:25:24;4.50;;;1.10;;
20669;SDS011;10494;50.868;4.180;2022-12-29T03:27:59;5.13;;;1.17;;
20669;SDS011;10494;50.868;4.180;2022-12-29T03:30:35;7.57;;;1.25;;
20669;SDS011;10494;50.868;4.180;2022-12-29T03:33:04;7.85;;;1.33;;
20669;SDS011;10494;50.868;4.180;2022-12-29T03:35:34;4.75;;;1.10;;
20669;SDS011;10494;50.868;4.180;2022-12-29T03:38:06;8.75;;;1.25;;
20669;SDS011;10494;50.868;4.180;2022-12-29T03:40:41;8.75;;;0.98;;
20669;SDS011;10494;50.868;4.180;2022-12-29T03:43:09;4.60;;;0.80;;
20669;SDS011;10494;50.868;4.180;2022-12-29T03:45:37;2.63;;;0.80;;
20669;SDS011;10494;50.868;4.180;2022-12-29T03:48:03;3.45;;;1.10;;
20669;SDS011;10494;50.868;4.180;2022-12-29T03:50:29;1.25;;;0.73;;
20669;SDS011;10494;50.868;4.180;2022-12-29T03:52:55;3.45;;;1.13;;
20669;SDS011;10494;50.868;4.180;2022-12-29T03:55:21;3.85;;;1.08;;
20669;SDS011;10494;50.868;4.180;2022-12-29T03:57:46;3.50;;;0.70;;
20669;SDS011;10494;50.868;4.180;2022-12-29T04:00:12;3.80;;;1.10;;
20669;SDS011;10494;50.868;4.180;2022-12-29T04:02:38;4.55;;;1.10;;
20669;SDS011;10494;50.868;4.180;2022-12-29T04:05:04;3.17;;;0.90;;
20669;SDS011;10494;50.868;4.180;2022-12-29T04:07:30;6.38;;;1.10;;
20669;SDS011;10494;50.868;4.180;2022-12-29T04:09:55;5.15;;;1.55;;
20669;SDS011;10494;50.868;4.180;2022-12-29T04:12:21;2.65;;;0.90;;
20669;SDS011;10494;50.868;4.180;2022-12-29T04:14:46;5.72;;;1.30;;
20669;SDS011;10494;50.868;4.180;2022-12-29T04:17:12;3.50;;;1.10;;
20669;SDS011;10494;50.868;4.180;2022-12-29T04:19:37;5.25;;;1.20;;
20669;SDS011;10494;50.868;4.180;2022-12-29T04:22:03;2.80;;;0.80;;
20669;SDS011;10494;50.868;4.180;2022-12-29T04:24:29;6.68;;;1.30;;
20669;SDS011;10494;50.868;4.180;2022-12-29T04:26:54;4.75;;;1.25;;
20669;SDS011;10494;50.868;4.180;2022-12-29T04:29:20;2.85;;;0.95;;
20669;SDS011;10494;50.868;4.180;2022-12-29T04:31:46;4.40;;;1.10;;
20669;SDS011;10494;50.868;4.180;2022-12-29T04:34:11;3.78;;;1.02;;
20669;SDS011;10494;50.868;4.180;2022-12-29T04:36:37;7.15;;;1.10;;
20669;SDS011;10494;50.868;4.180;2022-12-29T04:39:04;4.85;;;1.00;;
20669;SDS011;10494;50.868;4.180;2022-12-29T04:41:30;1.63;;;0.88;;
20669;SDS011;10494;50.868;4.180;2022-12-29T04:43:56;4.28;;;1.15;;
20669;SDS011;10494;50.868;4.180;2022-12-29T04:46:21;6.25;;;1.45;;
20669;SDS011;10494;50.868;4.180;2022-12-29T04:48:47;6.35;;;1.10;;
20669;SDS011;10494;50.868;4.180;2022-12-29T04:51:13;4.10;;;1.27;;
20669;SDS011;10494;50.868;4.180;2022-12-29T04:53:38;6.22;;;1.45;;
20669;SDS011;10494;50.868;4.180;2022-12-29T04:56:04;6.95;;;1.70;;
20669;SDS011;10494;50.868;4.180;2022-12-29T04:58:30;4.65;;;1.27;;
20669;SDS011;10494;50.868;4.180;2022-12-29T05:00:56;9.25;;;1.27;;
20669;SDS011;10494;50.868;4.180;2022-12-29T05:03:21;3.47;;;0.90;;
20669;SDS011;10494;50.868;4.180;2022-12-29T05:05:47;6.90;;;1.85;;
20669;SDS011;10494;50.868;4.180;2022-12-29T05:08:12;11.93;;;2.33;;
20669;SDS011;10494;50.868;4.180;2022-12-29T05:10:38;3.40;;;1.30;;
20669;SDS011;10494;50.868;4.180;2022-12-29T05:13:04;4.03;;;1.30;;
20669;SDS011;10494;50.868;4.180;2022-12-29T05:15:29;5.32;;;1.50;;
20669;SDS011;10494;50.868;4.180;2022-12-29T05:17:55;5.50;;;1.63;;
20669;SDS011;10494;50.868;4.180;2022-12-29T05:20:20;4.70;;;1.17;;
20669;SDS011;10494;50.868;4.180;2022-12-29T05:22:46;4.10;;;1.13;;
20669;SDS011;10494;50.868;4.180;2022-12-29T05:25:12;6.70;;;1.70;;
20669;SDS011;10494;50.868;4.180;2022-12-29T05:27:37;5.05;;;1.88;;
20669;SDS011;10494;50.868;4.180;2022-12-29T05:30:03;7.13;;;1.63;;
20669;SDS011;10494;50.868;4.180;2022-12-29T05:32:29;9.48;;;1.52;;
20669;SDS011;10494;50.868;4.180;2022-12-29T05:34:54;8.77;;;1.92;;
20669;SDS011;10494;50.868;4.180;2022-12-29T05:37:20;8.30;;;1.42;;
20669;SDS011;10494;50.868;4.180;2022-12-29T05:39:45;6.90;;;1.17;;
20669;SDS011;10494;50.868;4.180;2022-12-29T05:42:11;6.00;;;1.88;;
20669;SDS011;10494;50.868;4.180;2022-12-29T05:44:37;8.55;;;1.77;;
20669;SDS011;10494;50.868;4.180;2022-12-29T05:47:02;10.57;;;1.75;;
20669;SDS011;10494;50.868;4.180;2022-12-29T05:49:28;7.88;;;1.52;;
20669;SDS011;10494;50.868;4.180;2022-12-29T05:51:54;5.88;;;1.40;;
20669;SDS011;10494;50.868;4.180;2022-12-29T05:54:22;10.70;;;1.88;;
20669;SDS011;10494;50.868;4.180;2022-12-29T05:56:47;15.38;;;2.20;;
20669;SDS011;10494;50.868;4.180;2022-12-29T05:59:13;10.15;;;2.60;;
20669;SDS011;10494;50.868;4.180;2022-12-29T06:01:39;8.10;;;1.95;;
20669;SDS011;10494;50.868;4.180;2022-12-29T06:04:04;8.27;;;1.70;;
20669;SDS011;10494;50.868;4.180;2022-12-29T06:06:30;12.82;;;2.03;;
20669;SDS011;10494;50.868;4.180;2022-12-29T06:08:55;12.63;;;1.75;;
20669;SDS011;10494;50.868;4.180;2022-12-29T06:11:21;10.35;;;1.90;;
20669;SDS011;10494;50.868;4.180;2022-12-29T06:13:46;7.45;;;2.00;;
20669;SDS011;10494;50.868;4.180;2022-12-29T06:16:12;7.20;;;1.90;;
20669;SDS011;10494;50.868;4.180;2022-12-29T06:18:38;14.63;;;1.90;;
20669;SDS011;10494;50.868;4.180;2022-12-29T06:21:04;10.05;;;1.80;;
20669;SDS011;10494;50.868;4.180;2022-12-29T06:23:30;10.00;;;1.90;;
20669;SDS011;10494;50.868;4.180;2022-12-29T06:25:56;8.95;;;1.70;;
20669;SDS011;10494;50.868;4.180;2022-12-29T06:28:22;8.13;;;1.80;;
20669;SDS011;10494;50.868;4.180;2022-12-29T06:30:48;10.82;;;2.15;;
20669;SDS011;10494;50.868;4.180;2022-12-29T06:33:14;13.18;;;2.25;;
20669;SDS011;10494;50.868;4.180;2022-12-29T06:35:41;10.75;;;2.00;;
20669;SDS011;10494;50.868;4.180;2022-12-29T06:38:07;10.30;;;2.35;;
20669;SDS011;10494;50.868;4.180;2022-12-29T06:40:33;11.85;;;2.63;;
20669;SDS011;10494;50.868;4.180;2022-12-29T06:42:58;9.05;;;1.55;;
20669;SDS011;10494;50.868;4.180;2022-12-29T06:45:24;8.50;;;1.60;;
20669;SDS011;10494;50.868;4.180;2022-12-29T06:47:49;14.60;;;2.20;;
20669;SDS011;10494;50.868;4.180;2022-12-29T06:50:15;6.90;;;1.35;;
20669;SDS011;10494;50.868;4.180;2022-12-29T06:52:40;10.93;;;1.90;;
20669;SDS011;10494;50.868;4.180;2022-12-29T06:55:06;11.05;;;1.95;;
20669;SDS011;10494;50.868;4.180;2022-12-29T06:57:32;14.07;;;1.77;;
20669;SDS011;10494;50.868;4.180;2022-12-29T06:59:58;6.25;;;1.77;;
20669;SDS011;10494;50.868;4.180;2022-12-29T07:02:24;13.75;;;1.90;;
20669;SDS011;10494;50.868;4.180;2022-12-29T07:04:50;7.95;;;1.85;;
20669;SDS011;10494;50.868;4.180;2022-12-29T07:07:17;11.35;;;1.85;;
20669;SDS011;10494;50.868;4.180;2022-12-29T07:09:44;8.77;;;1.85;;
20669;SDS011;10494;50.868;4.180;2022-12-29T07:12:10;11.50;;;1.80;;
20669;SDS011;10494;50.868;4.180;2022-12-29T07:14:36;15.95;;;2.10;;
20669;SDS011;10494;50.868;4.180;2022-12-29T07:17:02;11.00;;;2.15;;
20669;SDS011;10494;50.868;4.180;2022-12-29T07:19:30;12.05;;;2.20;;
20669;SDS011;10494;50.868;4.180;2022-12-29T07:21:56;10.77;;;1.70;;
20669;SDS011;10494;50.868;4.180;2022-12-29T07:24:21;12.98;;;2.00;;
20669;SDS011;10494;50.868;4.180;2022-12-29T07:26:47;12.35;;;2.03;;
20669;SDS011;10494;50.868;4.180;2022-12-29T07:29:13;12.38;;;2.35;;
20669;SDS011;10494;50.868;4.180;2022-12-29T07:31:38;6.80;;;1.83;;
20669;SDS011;10494;50.868;4.180;2022-12-29T07:34:04;12.85;;;2.30;;
20669;SDS011;10494;50.868;4.180;2022-12-29T07:36:29;10.85;;;1.88;;
20669;SDS011;10494;50.868;4.180;2022-12-29T07:38:55;15.27;;;2.28;;
20669;SDS011;10494;50.868;4.180;2022-12-29T07:41:21;11.75;;;2.63;;
20669;SDS011;10494;50.868;4.180;2022-12-29T07:43:47;11.95;;;2.83;;
20669;SDS011;10494;50.868;4.180;2022-12-29T07:46:13;9.00;;;2.05;;
20669;SDS011;10494;50.868;4.180;2022-12-29T07:48:39;9.30;;;1.70;;
20669;SDS011;10494;50.868;4.180;2022-12-29T07:51:05;10.98;;;2.03;;
20669;SDS011;10494;50.868;4.180;2022-12-29T07:53:32;12.38;;;1.85;;
20669;SDS011;10494;50.868;4.180;2022-12-29T07:55:59;14.63;;;2.33;;
20669;SDS011;10494;50.868;4.180;2022-12-29T07:58:24;12.02;;;1.88;;
20669;SDS011;10494;50.868;4.180;2022-12-29T08:00:56;13.25;;;2.80;;
20669;SDS011;10494;50.868;4.180;2022-12-29T08:03:23;9.32;;;1.90;;
20669;SDS011;10494;50.868;4.180;2022-12-29T08:05:50;13.52;;;2.33;;
20669;SDS011;10494;50.868;4.180;2022-12-29T08:08:17;12.90;;;1.92;;
20669;SDS011;10494;50.868;4.180;2022-12-29T08:10:42;11.07;;;2.30;;
20669;SDS011;10494;50.868;4.180;2022-12-29T08:13:08;16.23;;;2.97;;
20669;SDS011;10494;50.868;4.180;2022-12-29T08:15:34;19.63;;;2.25;;
20669;SDS011;10494;50.868;4.180;2022-12-29T08:18:00;11.82;;;1.92;;
20669;SDS011;10494;50.868;4.180;2022-12-29T08:20:26;8.60;;;1.90;;
20669;SDS011;10494;50.868;4.180;2022-12-29T08:22:51;11.15;;;1.90;;
20669;SDS011;10494;50.868;4.180;2022-12-29T08:25:17;17.05;;;3.38;;
20669;SDS011;10494;50.868;4.180;2022-12-29T08:27:44;9.15;;;2.00;;
20669;SDS011;10494;50.868;4.180;2022-12-29T08:30:10;13.90;;;2.42;;
20669;SDS011;10494;50.868;4.180;2022-12-29T08:32:36;12.48;;;2.63;;
20669;SDS011;10494;50.868;4.180;2022-12-29T08:35:01;15.07;;;2.75;;
20669;SDS011;10494;50.868;4.180;2022-12-29T08:37:27;14.18;;;2.30;;
20669;SDS011;10494;50.868;4.180;2022-12-29T08:39:52;14.57;;;2.17;;
20669;SDS011;10494;50.868;4.180;2022-12-29T08:42:18;14.77;;;2.10;;
20669;SDS011;10494;50.868;4.180;2022-12-29T08:44:44;17.42;;;2.75;;
20669;SDS011;10494;50.868;4.180;2022-12-29T08:47:10;9.05;;;2.13;;
20669;SDS011;10494;50.868;4.180;2022-12-29T08:49:36;13.52;;;3.15;;
20669;SDS011;10494;50.868;4.180;2022-12-29T08:52:01;11.30;;;2.35;;
20669;SDS011;10494;50.868;4.180;2022-12-29T08:54:27;11.65;;;2.17;;
20669;SDS011;10494;50.868;4.180;2022-12-29T08:56:53;8.43;;;1.80;;
20669;SDS011;10494;50.868;4.180;2022-12-29T08:59:18;13.07;;;2.70;;
20669;SDS011;10494;50.868;4.180;2022-12-29T09:01:44;9.90;;;2.15;;
20669;SDS011;10494;50.868;4.180;2022-12-29T09:04:10;15.85;;;2.95;;
20669;SDS011;10494;50.868;4.180;2022-12-29T09:06:35;10.63;;;2.03;;
20669;SDS011;10494;50.868;4.180;2022-12-29T09:09:01;13.65;;;2.08;;
20669;SDS011;10494;50.868;4.180;2022-12-29T09:11:26;16.50;;;3.50;;
20669;SDS011;10494;50.868;4.180;2022-12-29T09:13:53;12.60;;;2.60;;
20669;SDS011;10494;50.868;4.180;2022-12-29T09:16:20;17.00;;;2.95;;
20669;SDS011;10494;50.868;4.180;2022-12-29T09:18:47;14.45;;;3.25;;
20669;SDS011;10494;50.868;4.180;2022-12-29T09:21:13;15.23;;;2.67;;
20669;SDS011;10494;50.868;4.180;2022-12-29T09:23:38;17.33;;;2.42;;
20669;SDS011;10494;50.868;4.180;2022-12-29T09:26:04;18.83;;;2.72;;
20669;SDS011;10494;50.868;4.180;2022-12-29T09:28:30;18.80;;;2.25;;
20669;SDS011;10494;50.868;4.180;2022-12-29T09:30:57;9.25;;;2.00;;
20669;SDS011;10494;50.868;4.180;2022-12-29T09:33:23;14.52;;;2.83;;
20669;SDS011;10494;50.868;4.180;2022-12-29T09:35:56;16.27;;;2.92;;
20669;SDS011;10494;50.868;4.180;2022-12-29T09:38:23;11.05;;;2.20;;
20669;SDS011;10494;50.868;4.180;2022-12-29T09:40:51;12.52;;;2.35;;
20669;SDS011;10494;50.868;4.180;2022-12-29T09:48:37;17.67;;;2.85;;
20669;SDS011;10494;50.868;4.180;2022-12-29T09:51:10;13.25;;;2.67;;
20669;SDS011;10494;50.868;4.180;2022-12-29T09:53:43;16.33;;;2.75;;
20669;SDS011;10494;50.868;4.180;2022-12-29T09:56:44;11.45;;;2.38;;
20669;SDS011;10494;50.868;4.180;2022-12-29T09:59:57;12.02;;;2.25;;
20669;SDS011;10494;50.868;4.180;2022-12-29T10:02:15;21.05;;;2.72;;
20669;SDS011;10494;50.868;4.180;2022-12-29T10:04:54;11.05;;;2.10;;
20669;SDS011;10494;50.868;4.180;2022-12-29T10:07:55;10.20;;;2.28;;
20669;SDS011;10494;50.868;4.180;2022-12-29T10:10:54;15.73;;;2.67;;
20669;SDS011;10494;50.868;4.180;2022-12-29T10:16:31;11.70;;;2.20;;
20669;SDS011;10494;50.868;4.180;2022-12-29T10:24:56;15.68;;;2.60;;
20669;SDS011;10494;50.868;4.180;2022-12-29T10:27:30;18.88;;;3.30;;
20669;SDS011;10494;50.868;4.180;2022-12-29T10:29:57;19.55;;;2.58;;
20669;SDS011;10494;50.868;4.180;2022-12-29T10:32:38;14.70;;;2.30;;
20669;SDS011;10494;50.868;4.180;2022-12-29T10:35:20;14.68;;;2.22;;
20669;SDS011;10494;50.868;4.180;2022-12-29T10:43:53;14.50;;;2.13;;
20669;SDS011;10494;50.868;4.180;2022-12-29T10:46:21;12.20;;;2.45;;
20669;SDS011;10494;50.868;4.180;2022-12-29T10:48:49;19.13;;;2.47;;
20669;SDS011;10494;50.868;4.180;2022-12-29T10:51:18;15.52;;;2.53;;
20669;SDS011;10494;50.868;4.180;2022-12-29T10:53:51;8.63;;;1.95;;
20669;SDS011;10494;50.868;4.180;2022-12-29T10:56:31;18.65;;;2.95;;
20669;SDS011;10494;50.868;4.180;2022-12-29T10:59:27;8.88;;;2.17;;
20669;SDS011;10494;50.868;4.180;2022-12-29T11:07:27;14.73;;;2.53;;
20669;SDS011;10494;50.868;4.180;2022-12-29T11:09:53;13.35;;;2.55;;
20669;SDS011;10494;50.868;4.180;2022-12-29T11:12:26;13.52;;;2.33;;
20669;SDS011;10494;50.868;4.180;2022-12-29T11:17:42;12.73;;;2.83;;
20669;SDS011;10494;50.868;4.180;2022-12-29T11:28:36;16.70;;;2.60;;
20669;SDS011;10494;50.868;4.180;2022-12-29T11:31:03;16.05;;;2.72;;
20669;SDS011;10494;50.868;4.180;2022-12-29T11:33:31;15.38;;;3.08;;
20669;SDS011;10494;50.868;4.180;2022-12-29T11:36:20;16.52;;;2.90;;
20669;SDS011;10494;50.868;4.180;2022-12-29T11:38:50;12.07;;;2.42;;
20669;SDS011;10494;50.868;4.180;2022-12-29T11:41:22;18.05;;;2.30;;
20669;SDS011;10494;50.868;4.180;2022-12-29T11:43:50;8.43;;;1.80;;
20669;SDS011;10494;50.868;4.180;2022-12-29T11:46:19;13.15;;;2.70;;
20669;SDS011;10494;50.868;4.180;2022-12-29T11:48:48;14.27;;;3.53;;
20669;SDS011;10494;50.868;4.180;2022-12-29T11:51:27;12.60;;;2.45;;
20669;SDS011;10494;50.868;4.180;2022-12-29T11:54:19;15.25;;;3.00;;
20669;SDS011;10494;50.868;4.180;2022-12-29T11:56:52;15.40;;;2.67;;
20669;SDS011;10494;50.868;4.180;2022-12-29T12:05:06;17.85;;;2.92;;
20669;SDS011;10494;50.868;4.180;2022-12-29T12:07:45;11.43;;;2.55;;
20669;SDS011;10494;50.868;4.180;2022-12-29T12:10:24;11.15;;;2.42;;
20669;SDS011;10494;50.868;4.180;2022-12-29T12:15:36;14.43;;;2.38;;
20669;SDS011;10494;50.868;4.180;2022-12-29T12:18:08;13.60;;;2.88;;
20669;SDS011;10494;50.868;4.180;2022-12-29T12:20:42;10.85;;;2.20;;
20669;SDS011;10494;50.868;4.180;2022-12-29T12:28:54;9.90;;;2.20;;
20669;SDS011;10494;50.868;4.180;2022-12-29T12:31:45;10.07;;;2.40;;
20669;SDS011;10494;50.868;4.180;2022-12-29T12:34:14;14.30;;;2.35;;
20669;SDS011;10494;50.868;4.180;2022-12-29T12:36:59;9.32;;;2.25;;
20669;SDS011;10494;50.868;4.180;2022-12-29T12:50:22;9.25;;;2.05;;
20669;SDS011;10494;50.868;4.180;2022-12-29T12:53:10;12.45;;;2.45;;
20669;SDS011;10494;50.868;4.180;2022-12-29T13:10:23;7.70;;;2.28;;
20669;SDS011;10494;50.868;4.180;2022-12-29T13:18:52;10.13;;;2.13;;
20669;SDS011;10494;50.868;4.180;2022-12-29T13:27:13;12.43;;;2.50;;
20669;SDS011;10494;50.868;4.180;2022-12-29T13:38:08;12.00;;;2.22;;
20669;SDS011;10494;50.868;4.180;2022-12-29T13:40:59;13.05;;;1.95;;
20669;SDS011;10494;50.868;4.180;2022-12-29T13:43:29;13.63;;;2.65;;
20669;SDS011;10494;50.868;4.180;2022-12-29T13:46:02;7.35;;;1.95;;
20669;SDS011;10494;50.868;4.180;2022-12-29T13:48:38;10.85;;;2.40;;
20669;SDS011;10494;50.868;4.180;2022-12-29T13:51:19;13.80;;;2.78;;
20669;SDS011;10494;50.868;4.180;2022-12-29T13:56:39;17.33;;;3.30;;
20669;SDS011;10494;50.868;4.180;2022-12-29T13:59:24;16.40;;;3.47;;
20669;SDS011;10494;50.868;4.180;2022-12-29T14:02:10;16.02;;;3.03;;
20669;SDS011;10494;50.868;4.180;2022-12-29T14:05:00;11.63;;;2.75;;
20669;SDS011;10494;50.868;4.180;2022-12-29T14:07:28;15.60;;;2.88;;
20669;SDS011;10494;50.868;4.180;2022-12-29T14:09:55;11.70;;;3.78;;
20669;SDS011;10494;50.868;4.180;2022-12-29T14:17:39;9.23;;;2.35;;
20669;SDS011;10494;50.868;4.180;2022-12-29T14:20:15;4.55;;;1.80;;
20669;SDS011;10494;50.868;4.180;2022-12-29T14:26:12;6.18;;;1.33;;
20669;SDS011;10494;50.868;4.180;2022-12-29T14:28:30;7.40;;;1.80;;
20669;SDS011;10494;50.868;4.180;2022-12-29T14:31:01;6.50;;;1.47;;
20669;SDS011;10494;50.868;4.180;2022-12-29T14:33:32;5.00;;;1.23;;
20669;SDS011;10494;50.868;4.180;2022-12-29T14:36:18;6.83;;;1.80;;
20669;SDS011;10494;50.868;4.180;2022-12-29T14:38:45;7.83;;;2.03;;
20669;SDS011;10494;50.868;4.180;2022-12-29T14:41:16;6.83;;;1.67;;
20669;SDS011;10494;50.868;4.180;2022-12-29T14:49:32;10.73;;;1.40;;
20669;SDS011;10494;50.868;4.180;2022-12-29T14:52:19;8.50;;;1.53;;
20669;SDS011;10494;50.868;4.180;2022-12-29T14:57:32;12.23;;;2.13;;
20669;SDS011;10494;50.868;4.180;2022-12-29T15:00:12;6.57;;;1.60;;
20669;SDS011;10494;50.868;4.180;2022-12-29T15:02:47;7.57;;;1.67;;
20669;SDS011;10494;50.868;4.180;2022-12-29T15:05:30;6.77;;;1.37;;
20669;SDS011;10494;50.868;4.180;2022-12-29T15:07:57;7.20;;;1.70;;
20669;SDS011;10494;50.868;4.180;2022-12-29T15:10:24;6.17;;;1.67;;
20669;SDS011;10494;50.868;4.180;2022-12-29T15:13:00;12.37;;;1.87;;
20669;SDS011;10494;50.868;4.180;2022-12-29T15:15:29;9.77;;;1.80;;
20669;SDS011;10494;50.868;4.180;2022-12-29T15:18:18;10.70;;;2.27;;
20669;SDS011;10494;50.868;4.180;2022-12-29T15:20:50;10.53;;;2.00;;
20669;SDS011;10494;50.868;4.180;2022-12-29T15:23:20;13.87;;;2.27;;
20669;SDS011;10494;50.868;4.180;2022-12-29T15:28:25;9.70;;;2.43;;
20669;SDS011;10494;50.868;4.180;2022-12-29T15:30:56;13.47;;;2.23;;
20669;SDS011;10494;50.868;4.180;2022-12-29T15:33:27;18.23;;;2.90;;
20669;SDS011;10494;50.868;4.180;2022-12-29T15:35:54;9.00;;;2.50;;
20669;SDS011;10494;50.868;4.180;2022-12-29T15:38:27;12.07;;;2.30;;
20669;SDS011;10494;50.868;4.180;2022-12-29T15:40:58;11.90;;;4.07;;
20669;SDS011;10494;50.868;4.180;2022-12-29T15:46:10;12.40;;;2.72;;
20669;SDS011;10494;50.868;4.180;2022-12-29T15:48:37;14.37;;;2.97;;
20669;SDS011;10494;50.868;4.180;2022-12-29T15:51:08;7.70;;;2.20;;
20669;SDS011;10494;50.868;4.180;2022-12-29T15:53:43;15.43;;;2.60;;
20669;SDS011;10494;50.868;4.180;2022-12-29T15:56:13;10.93;;;3.53;;
20669;SDS011;10494;50.868;4.180;2022-12-29T15:58:43;13.07;;;3.73;;
20669;SDS011;10494;50.868;4.180;2022-12-29T16:01:17;14.03;;;2.77;;
20669;SDS011;10494;50.868;4.180;2022-12-29T16:03:55;11.83;;;3.10;;
20669;SDS011;10494;50.868;4.180;2022-12-29T16:06:36;11.03;;;2.90;;
20669;SDS011;10494;50.868;4.180;2022-12-29T16:09:04;12.20;;;2.87;;
20669;SDS011;10494;50.868;4.180;2022-12-29T16:11:38;11.17;;;3.37;;
20669;SDS011;10494;50.868;4.180;2022-12-29T16:14:15;16.83;;;2.67;;
20669;SDS011;10494;50.868;4.180;2022-12-29T16:16:43;14.57;;;2.90;;
20669;SDS011;10494;50.868;4.180;2022-12-29T16:19:12;18.13;;;2.30;;
20669;SDS011;10494;50.868;4.180;2022-12-29T16:21:42;11.20;;;2.10;;
20669;SDS011;10494;50.868;4.180;2022-12-29T16:24:11;18.73;;;4.17;;
20669;SDS011;10494;50.868;4.180;2022-12-29T16:26:44;19.03;;;3.10;;
20669;SDS011;10494;50.868;4.180;2022-12-29T16:29:14;19.27;;;4.13;;
20669;SDS011;10494;50.868;4.180;2022-12-29T16:31:54;14.50;;;3.63;;
20669;SDS011;10494;50.868;4.180;2022-12-29T16:47:43;14.25;;;3.20;;
20669;SDS011;10494;50.868;4.180;2022-12-29T16:50:17;19.90;;;3.27;;
20669;SDS011;10494;50.868;4.180;2022-12-29T16:52:48;16.77;;;4.10;;
20669;SDS011;10494;50.868;4.180;2022-12-29T16:55:15;29.07;;;4.23;;
20669;SDS011;10494;50.868;4.180;2022-12-29T16:57:43;15.10;;;3.40;;
20669;SDS011;10494;50.868;4.180;2022-12-29T17:00:20;26.67;;;3.67;;
20669;SDS011;10494;50.868;4.180;2022-12-29T17:02:48;19.60;;;3.60;;
20669;SDS011;10494;50.868;4.180;2022-12-29T17:05:16;25.87;;;3.73;;
20669;SDS011;10494;50.868;4.180;2022-12-29T17:07:43;25.00;;;4.53;;
20669;SDS011;10494;50.868;4.180;2022-12-29T17:10:09;21.43;;;4.37;;
20669;SDS011;10494;50.868;4.180;2022-12-29T17:12:37;24.77;;;4.23;;
20669;SDS011;10494;50.868;4.180;2022-12-29T17:15:11;18.90;;;3.33;;
20669;SDS011;10494;50.868;4.180;2022-12-29T17:17:43;20.47;;;3.90;;
20669;SDS011;10494;50.868;4.180;2022-12-29T17:20:18;20.73;;;3.93;;
20669;SDS011;10494;50.868;4.180;2022-12-29T17:22:44;26.95;;;4.90;;
20669;SDS011;10494;50.868;4.180;2022-12-29T17:25:11;26.13;;;4.33;;
20669;SDS011;10494;50.868;4.180;2022-12-29T17:27:49;24.23;;;5.00;;
20669;SDS011;10494;50.868;4.180;2022-12-29T17:30:22;27.47;;;5.37;;
20669;SDS011;10494;50.868;4.180;2022-12-29T17:32:53;17.60;;;3.63;;
20669;SDS011;10494;50.868;4.180;2022-12-29T17:35:23;20.87;;;4.30;;
20669;SDS011;10494;50.868;4.180;2022-12-29T17:37:49;19.57;;;3.40;;
20669;SDS011;10494;50.868;4.180;2022-12-29T17:40:16;18.33;;;3.33;;
20669;SDS011;10494;50.868;4.180;2022-12-29T17:42:53;18.33;;;3.93;;
20669;SDS011;10494;50.868;4.180;2022-12-29T17:45:22;14.43;;;2.93;;
20669;SDS011;10494;50.868;4.180;2022-12-29T17:47:49;17.37;;;3.57;;
20669;SDS011;10494;50.868;4.180;2022-12-29T17:50:16;24.20;;;4.10;;
20669;SDS011;10494;50.868;4.180;2022-12-29T17:52:50;21.33;;;3.07;;
20669;SDS011;10494;50.868;4.180;2022-12-29T17:55:24;17.40;;;2.87;;
20669;SDS011;10494;50.868;4.180;2022-12-29T17:57:50;17.75;;;3.47;;